Aviation Digital Data Service (ADDS)

Output produced by METARs form (0058 UTC 24 May 2022)
found at http://www.aviationweather.gov/metar/data/
 
TAF FMCH 231700Z 2318/2424 10003KT 9999 FEW020 
     BECMG 2407/2409 21015KT 
     BECMG 2416/2418 08003KT